Ralph, Michigan
Current Conditions -  °F | °C
As of 7:48 PM on Friday 19 Dec 2014 (Local Time) from KSAW Reporting Station
Overcast Overcast  
Wind Chill: 18°   Ceiling: 1600
Heat Index: 25°   Visibility: 10mi
Dew Point: 19°   Wind: 6mph
Humidity: 80%   Direction: 190°S
Pressure: 30.24"   Gusts: NA
Location:  46.11°N, 87.78°W
Report Text: KSAW 200148Z 19005KT 10SM OVC016 M04/M07 A3024
Loading
Personal Weather Stations






























Interactive Weather Map New forecast layout! Learn more

10-Day Weather Forecast

Advertisements
Track Severe Weather on mobile